Time;durP1;ratioP1;P1;durP2;ratioP2;P2;SDS_P1;SDS_P2;PMS_P1;PMS_P2;Temp;Humidity;BMP_temperature;BMP_pressure;BME280_temperature;BME280_humidity;BME280_pressure;Samples;Min_cycle;Max_cycle;Signal;HPM_P1;HPM_P2
2021/03/31 00:02:21;;;;;;;15.10;12.47;;;;;;;15.09;45.66;102573.59;6208153;28;20221;-55
2021/03/31 00:05:42;;;;;;;19.57;12.40;;;;;;;15.10;45.77;102561.34;6212674;28;20327;-54
2021/03/31 00:09:02;;;;;;;14.67;13.17;;;;;;;14.77;46.45;102561.34;6209935;28;20229;-54
2021/03/31 00:12:22;;;;;;;18.83;13.97;;;;;;;14.62;46.51;102558.69;6204194;28;20333;-56
2021/03/31 00:15:43;;;;;;;19.37;13.00;;;;;;;14.66;46.75;102552.59;6197666;28;20230;-51
2021/03/31 00:19:05;;;;;;;13.97;11.03;;;;;;;14.65;46.71;102545.56;6181111;28;20233;-52
2021/03/31 00:22:25;;;;;;;15.83;11.40;;;;;;;14.65;46.77;102545.56;6208561;28;20240;-54
2021/03/31 00:25:46;;;;;;;13.40;11.97;;;;;;;14.38;47.50;102535.88;6202255;28;20222;-54
2021/03/31 00:29:06;;;;;;;13.63;12.00;;;;;;;14.45;47.50;102531.53;6201689;28;20247;-56
2021/03/31 00:32:27;;;;;;;17.37;13.07;;;;;;;14.24;47.96;102535.84;6209419;28;20232;-54
2021/03/31 00:35:48;;;;;;;12.63;11.30;;;;;;;14.37;47.84;102535.00;6206956;28;20217;-54
2021/03/31 00:39:09;;;;;;;13.07;11.67;;;;;;;14.66;46.72;102526.38;6196237;28;20237;-54
2021/03/31 00:42:29;;;;;;;14.57;12.47;;;;;;;14.61;46.79;102528.09;6199084;28;20324;-54
2021/03/31 00:45:50;;;;;;;13.47;11.33;;;;;;;14.48;47.04;102529.81;6208083;28;20316;-54
2021/03/31 00:49:10;;;;;;;13.80;10.73;;;;;;;13.82;49.35;102528.69;6209404;28;20630;-55
2021/03/31 00:52:32;;;;;;;15.87;11.03;;;;;;;14.28;47.47;102526.25;6189121;28;20245;-53
2021/03/31 00:55:52;;;;;;;15.13;11.63;;;;;;;14.23;47.80;102522.72;6206082;28;20539;-56
2021/03/31 00:59:13;;;;;;;14.47;11.43;;;;;;;14.17;47.98;102514.00;6198443;28;20648;-56
2021/03/31 01:02:34;;;;;;;12.80;11.50;;;;;;;13.93;48.00;102514.78;6212773;28;20236;-54
2021/03/31 01:05:55;;;;;;;12.20;10.23;;;;;;;13.97;48.55;102505.19;6207432;28;20248;-55
2021/03/31 01:09:16;;;;;;;14.67;12.13;;;;;;;14.03;48.28;102501.72;6186559;28;20233;-52
2021/03/31 01:12:50;;;;;;;12.97;11.60;;;;;;;13.42;50.19;102495.34;6201052;28;20233;-53
2021/03/31 01:16:25;;;;;;;14.03;12.43;;;;;;;13.50;49.97;102493.63;6204166;28;20253;-53
2021/03/31 01:20:03;;;;;;;14.63;11.43;;;;;;;14.04;48.39;102485.16;6198084;28;20225;-55
2021/03/31 01:23:56;;;;;;;12.07;10.17;;;;;;;13.96;48.48;102488.59;6198056;28;20236;-56
2021/03/31 01:27:22;;;;;;;17.50;10.87;;;;;;;13.57;49.51;102489.28;6205638;28;20229;-53
2021/03/31 01:30:53;;;;;;;13.50;10.87;;;;;;;13.69;49.21;102485.88;6209380;28;20226;-54
2021/03/31 01:34:35;;;;;;;13.40;10.83;;;;;;;13.90;48.57;102483.34;6204023;28;20837;-56
2021/03/31 01:38:00;;;;;;;16.43;12.80;;;;;;;13.85;48.21;102479.84;6192719;28;20241;-52
2021/03/31 01:41:21;;;;;;;17.70;11.63;;;;;;;13.70;49.01;102491.09;6201871;28;20274;-56
2021/03/31 01:44:43;;;;;;;17.43;11.73;;;;;;;12.91;51.06;102496.69;6204683;28;20230;-52
2021/03/31 01:48:07;;;;;;;14.97;11.67;;;;;;;12.45;52.33;102491.94;6203860;28;20229;-51
2021/03/31 01:51:30;;;;;;;14.70;11.30;;;;;;;12.86;51.41;102485.34;6201956;28;20627;-54
2021/03/31 01:54:51;;;;;;;15.87;11.07;;;;;;;13.30;49.86;102484.78;6207936;28;20253;-53
2021/03/31 01:58:14;;;;;;;12.33;10.53;;;;;;;13.36;49.98;102477.00;6205867;28;20237;-56
2021/03/31 02:01:35;;;;;;;13.77;10.47;;;;;;;13.35;49.72;102478.72;6209931;28;20225;-53
2021/03/31 02:04:56;;;;;;;15.63;11.83;;;;;;;13.32;49.95;102470.88;6208950;28;20512;-56
2021/03/31 02:08:20;;;;;;;13.93;11.60;;;;;;;13.14;49.94;102462.84;6203928;28;20320;-52
2021/03/31 02:11:43;;;;;;;14.30;11.77;;;;;;;13.06;50.72;102470.66;6203581;28;20320;-52
2021/03/31 02:15:06;;;;;;;13.43;12.03;;;;;;;12.98;50.53;102467.97;6201380;28;20233;-52
2021/03/31 02:18:30;;;;;;;13.80;11.00;;;;;;;12.93;50.89;102466.19;6207153;28;20241;-51
2021/03/31 02:21:51;;;;;;;12.90;11.10;;;;;;;13.01;50.80;102464.53;6206670;28;20221;-56
2021/03/31 02:25:14;;;;;;;15.93;11.17;;;;;;;12.97;51.08;102462.75;6195228;28;20261;-57
2021/03/31 02:28:35;;;;;;;13.67;11.33;;;;;;;12.72;52.28;102462.56;6206103;28;20225;-53
2021/03/31 02:31:57;;;;;;;16.60;12.00;;;;;;;13.00;51.15;102463.63;6202643;28;20233;-51
2021/03/31 02:35:21;;;;;;;13.87;11.53;;;;;;;12.89;52.17;102469.66;6199722;28;20233;-56
2021/03/31 02:38:42;;;;;;;16.77;13.17;;;;;;;12.62;52.62;102473.81;6207353;28;20221;-54
2021/03/31 02:42:07;;;;;;;13.60;12.37;;;;;;;12.69;52.79;102459.91;6199689;28;20784;-55
2021/03/31 02:45:30;;;;;;;11.90;10.70;;;;;;;12.83;51.60;102457.41;6210864;28;20923;-53
2021/03/31 02:48:53;;;;;;;13.83;10.63;;;;;;;12.59;52.18;102456.34;6207543;28;20244;-55
2021/03/31 02:52:16;;;;;;;13.63;11.40;;;;;;;12.80;51.69;102445.19;6201304;28;20237;-53
2021/03/31 02:55:38;;;;;;;12.63;11.20;;;;;;;12.97;50.91;102434.00;6204589;28;20719;-55
2021/03/31 02:59:00;;;;;;;16.93;12.47;;;;;;;12.74;51.76;102444.28;6209288;28;20230;-54
2021/03/31 03:02:21;;;;;;;29.90;20.40;;;;;;;12.58;52.59;102433.69;6220217;28;21979;-54
2021/03/31 03:05:43;;;;;;;26.03;23.20;;;;;;;12.74;52.09;102437.31;6214279;28;20229;-53
2021/03/31 03:09:05;;;;;;;29.47;26.37;;;;;;;12.74;51.77;102434.69;6208613;28;20831;-52
2021/03/31 03:12:26;;;;;;;25.80;22.10;;;;;;;12.20;53.28;102435.97;6211921;28;20647;-54
2021/03/31 03:15:47;;;;;;;23.17;19.70;;;;;;;12.21;53.07;102429.84;6210297;28;20230;-54
2021/03/31 03:19:07;;;;;;;24.07;19.43;;;;;;;12.32;53.36;102420.38;6211489;28;20248;-54
2021/03/31 03:22:28;;;;;;;19.00;16.83;;;;;;;12.31;53.76;102420.38;6214033;28;20244;-56
2021/03/31 03:25:50;;;;;;;16.10;14.10;;;;;;;11.94;54.33;102423.50;6212537;28;20229;-55
2021/03/31 03:29:12;;;;;;;17.23;12.73;;;;;;;11.59;54.76;102418.72;6207057;28;20234;-52
2021/03/31 03:32:34;;;;;;;19.63;12.30;;;;;;;11.52;55.62;102416.88;6193222;28;20242;-55
2021/03/31 03:35:55;;;;;;;16.53;12.40;;;;;;;11.92;54.42;102417.41;6208547;28;20234;-53
2021/03/31 03:39:16;;;;;;;15.33;13.07;;;;;;;12.19;53.40;102415.91;6194261;28;20229;-54
2021/03/31 03:42:37;;;;;;;17.30;12.23;;;;;;;12.19;53.02;102422.03;6208185;28;20234;-56
2021/03/31 03:45:58;;;;;;;13.90;12.40;;;;;;;11.27;55.40;102414.81;6210172;28;20233;-54
2021/03/31 03:49:19;;;;;;;19.50;12.53;;;;;;;11.03;56.29;102418.81;6212483;28;20232;-56
2021/03/31 03:52:42;;;;;;;13.70;12.20;;;;;;;10.99;56.88;102410.09;6208444;28;20229;-56
2021/03/31 03:56:09;;;;;;;16.53;11.40;;;;;;;11.19;56.32;102414.72;6206982;28;20369;-54
2021/03/31 03:59:30;;;;;;;14.63;11.97;;;;;;;11.21;55.91;102408.66;6210112;28;20221;-54
2021/03/31 04:02:51;;;;;;;13.87;11.77;;;;;;;10.64;57.90;102407.81;6206529;28;20229;-53
2021/03/31 04:06:13;;;;;;;16.03;11.80;;;;;;;10.11;59.45;102404.28;6203547;28;20232;-55
2021/03/31 04:09:34;;;;;;;15.73;11.67;;;;;;;10.35;58.85;102391.72;6208410;28;20356;-55
2021/03/31 04:12:58;;;;;;;16.63;12.67;;;;;;;10.90;57.16;102393.44;6210431;28;20233;-53
2021/03/31 04:16:19;;;;;;;19.47;15.77;;;;;;;11.16;56.66;102384.25;6206458;28;20241;-53
2021/03/31 04:19:41;;;;;;;18.90;16.97;;;;;;;11.22;55.91;102386.97;6206134;28;20236;-55
2021/03/31 04:23:03;;;;;;;19.57;15.97;;;;;;;11.17;56.65;102385.13;6209038;28;20264;-52
2021/03/31 04:26:24;;;;;;;21.67;19.17;;;;;;;11.37;55.64;102380.16;6201897;28;20551;-57
2021/03/31 04:29:46;;;;;;;31.27;24.77;;;;;;;11.52;55.43;102380.38;6198767;28;20359;-55
2021/03/31 04:33:10;;;;;;;21.00;18.93;;;;;;;11.27;55.75;102386.13;6215406;28;20255;-54
2021/03/31 04:36:31;;;;;;;22.47;20.03;;;;;;;11.35;55.84;102382.75;6208888;28;20240;-53
2021/03/31 04:39:52;;;;;;;27.37;23.93;;;;;;;11.38;55.72;102371.47;6204917;28;20236;-54
2021/03/31 04:43:12;;;;;;;20.30;18.20;;;;;;;11.26;55.68;102376.53;6208863;28;20600;-52
2021/03/31 04:46:33;;;;;;;32.13;29.00;;;;;;;11.42;54.78;102375.91;6211788;28;20228;-51
2021/03/31 04:49:54;;;;;;;16.03;13.30;;;;;;;11.57;54.35;102383.91;6203312;28;20225;-55
2021/03/31 04:53:15;;;;;;;14.33;11.63;;;;;;;11.50;54.12;102378.59;6209263;28;20229;-55
2021/03/31 04:56:36;;;;;;;13.13;11.37;;;;;;;11.35;54.67;102368.84;6204950;28;20876;-53
2021/03/31 04:59:56;;;;;;;13.23;10.80;;;;;;;11.43;54.25;102370.69;6196286;28;20245;-55
2021/03/31 05:03:17;;;;;;;15.33;10.97;;;;;;;11.09;55.27;102369.38;6203080;28;20235;-54
2021/03/31 05:06:37;;;;;;;19.57;13.73;;;;;;;10.82;55.34;102365.53;6209367;28;20240;-55
2021/03/31 05:09:58;;;;;;;17.50;13.23;;;;;;;10.87;56.04;102367.31;6202687;28;20324;-53
2021/03/31 05:13:19;;;;;;;14.83;11.87;;;;;;;11.09;55.48;102372.00;6197919;28;20241;-56
2021/03/31 05:16:39;;;;;;;21.73;12.03;;;;;;;11.22;54.79;102365.19;6198847;28;20228;-52
2021/03/31 05:20:01;;;;;;;19.57;12.50;;;;;;;10.87;55.09;102372.53;6202653;28;20618;-55
2021/03/31 05:23:21;;;;;;;20.83;14.20;;;;;;;10.95;54.47;102365.69;6189948;28;20528;-53
2021/03/31 05:26:42;;;;;;;18.03;13.27;;;;;;;10.89;54.78;102361.28;6196845;28;20230;-52
2021/03/31 05:30:05;;;;;;;18.40;13.37;;;;;;;10.59;55.51;102364.31;6204499;28;20510;-52
2021/03/31 05:33:26;;;;;;;20.37;14.63;;;;;;;10.35;56.50;102362.19;6209406;28;20236;-55
2021/03/31 05:36:46;;;;;;;26.03;16.10;;;;;;;10.11;56.84;102353.06;6205879;28;20229;-54
2021/03/31 05:40:07;;;;;;;21.43;13.40;;;;;;;10.71;55.58;102364.50;6205934;28;20229;-55
2021/03/31 05:43:28;;;;;;;20.73;14.40;;;;;;;11.05;54.33;102357.19;6205668;28;20224;-50
2021/03/31 05:46:50;;;;;;;22.10;14.57;;;;;;;11.38;53.41;102361.94;6199174;28;20229;-56
2021/03/31 05:50:13;;;;;;;16.57;12.67;;;;;;;11.57;52.97;102365.66;6199565;28;20253;-68
2021/03/31 05:53:33;;;;;;;18.73;14.80;;;;;;;11.51;53.15;102360.34;6206213;28;20750;-68
2021/03/31 05:56:54;;;;;;;16.40;12.40;;;;;;;11.41;53.47;102358.47;6193140;28;20242;-68
2021/03/31 06:00:16;;;;;;;21.30;14.30;;;;;;;10.89;55.03;102355.19;6203302;28;20256;-69
2021/03/31 06:03:38;;;;;;;28.80;13.53;;;;;;;11.53;53.09;102362.97;6198775;28;20614;-58
2021/03/31 06:06:58;;;;;;;18.13;13.33;;;;;;;11.90;51.91;102361.66;6206250;28;20229;-58
2021/03/31 06:10:20;;;;;;;17.33;12.20;;;;;;;12.04;51.32;102353.09;6203456;28;20657;-55
2021/03/31 06:13:48;;;;;;;15.93;12.10;;;;;;;12.13;51.08;102355.78;6205699;28;20233;-52
2021/03/31 06:17:11;;;;;;;16.43;13.60;;;;;;;12.35;50.41;102354.25;6205078;28;20619;-51
2021/03/31 06:20:46;;;;;;;19.77;12.67;;;;;;;12.12;50.76;102347.09;6201273;28;20290;-54
2021/03/31 06:24:19;;;;;;;19.77;15.50;;;;;;;11.68;52.36;102350.09;6202966;28;20253;-55
2021/03/31 06:27:40;;;;;;;21.53;13.37;;;;;;;11.54;53.23;102347.34;6208858;28;20244;-57
2021/03/31 06:31:08;;;;;;;17.93;14.13;;;;;;;11.33;53.37;102347.09;6206799;28;20245;-57
2021/03/31 06:34:32;;;;;;;22.33;14.60;;;;;;;11.40;53.36;102343.69;6202130;28;20515;-54
2021/03/31 06:38:04;;;;;;;18.33;13.53;;;;;;;11.97;51.81;102342.59;6212068;28;20218;-56
2021/03/31 06:41:28;;;;;;;21.67;15.03;;;;;;;12.32;50.25;102326.34;6186234;28;20248;-50
2021/03/31 06:44:59;;;;;;;22.00;14.17;;;;;;;12.64;50.32;102333.56;6204722;28;20257;-58
2021/03/31 06:48:21;;;;;;;23.73;14.63;;;;;;;12.75;49.41;102328.38;6204829;28;20548;-58
2021/03/31 06:51:42;;;;;;;19.83;14.50;;;;;;;13.20;48.16;102335.59;6207372;28;20666;-57
2021/03/31 06:55:04;;;;;;;25.70;15.30;;;;;;;12.88;47.87;102334.56;6205726;28;20237;-58
2021/03/31 06:58:25;;;;;;;20.10;14.70;;;;;;;12.72;48.81;102338.84;6205313;28;20261;-54
2021/03/31 07:01:46;;;;;;;21.30;15.03;;;;;;;12.54;48.84;102334.34;6208018;28;20545;-54
2021/03/31 07:05:08;;;;;;;14.90;13.43;;;;;;;13.23;47.63;102331.25;6209186;28;20241;-58
2021/03/31 07:08:35;;;;;;;20.43;14.73;;;;;;;13.47;46.82;102326.13;6207762;28;20233;-56
2021/03/31 07:11:56;;;;;;;23.17;13.73;;;;;;;13.76;46.13;102322.69;6184541;28;20237;-56
2021/03/31 07:15:20;;;;;;;17.93;14.10;;;;;;;14.05;45.13;102314.00;6204726;28;20249;-56
2021/03/31 07:18:42;;;;;;;17.77;15.23;;;;;;;14.21;44.42;102310.53;6191351;28;20241;-54
2021/03/31 07:22:03;;;;;;;17.93;15.73;;;;;;;14.13;44.01;102313.13;6207000;28;20233;-58
2021/03/31 07:25:23;;;;;;;23.00;16.33;;;;;;;14.21;43.63;102305.28;6204676;28;20337;-57
2021/03/31 07:28:46;;;;;;;17.57;14.87;;;;;;;14.62;43.09;102304.38;6200357;28;20246;-57
2021/03/31 07:32:08;;;;;;;23.57;19.00;;;;;;;14.88;43.13;102306.06;6208901;28;20560;-57
2021/03/31 07:35:33;;;;;;;21.93;19.70;;;;;;;14.65;41.92;102293.00;6203745;28;20256;-59
2021/03/31 07:38:54;;;;;;;16.80;15.00;;;;;;;14.84;41.95;102292.06;6205972;28;20233;-56
2021/03/31 07:42:15;;;;;;;22.10;15.67;;;;;;;15.04;41.22;102294.59;6205578;28;20236;-56
2021/03/31 07:45:41;;;;;;;22.67;16.17;;;;;;;14.74;40.95;102282.50;6206512;28;20597;-57
2021/03/31 07:49:02;;;;;;;20.67;17.87;;;;;;;14.97;40.27;102285.03;6216247;28;20241;-55
2021/03/31 07:53:04;;;;;;;20.00;17.10;;;;;;;14.99;40.30;102278.03;6213777;28;20327;-52
2021/03/31 07:56:33;;;;;;;19.47;16.37;;;;;;;14.61;40.23;102276.41;6197632;28;20301;-56
2021/03/31 07:59:53;;;;;;;19.80;16.67;;;;;;;15.38;39.48;102290.97;6201582;28;20232;-55
2021/03/31 08:03:16;;;;;;;17.60;14.60;;;;;;;15.01;39.42;102281.53;6197858;28;20229;-54
2021/03/31 08:06:38;;;;;;;24.10;18.70;;;;;;;15.76;39.05;102280.25;6202073;28;20241;-55
2021/03/31 08:10:32;;;;;;;28.30;16.33;;;;;;;15.76;37.80;102280.25;6198517;28;20606;-58
2021/03/31 08:13:53;;;;;;;22.17;18.20;;;;;;;15.88;37.29;102279.28;6192362;28;20233;-57
2021/03/31 08:17:16;;;;;;;26.03;16.37;;;;;;;15.57;37.63;102274.22;6201658;28;20353;-57
2021/03/31 08:20:38;;;;;;;19.83;17.53;;;;;;;16.13;37.52;102269.44;6198877;28;20248;-56
2021/03/31 08:24:01;;;;;;;21.63;16.60;;;;;;;16.19;37.38;102266.75;6209504;28;20879;-56
2021/03/31 08:27:22;;;;;;;19.63;15.83;;;;;;;16.72;36.47;102257.41;6211024;28;20240;-57
2021/03/31 08:30:43;;;;;;;19.53;15.23;;;;;;;16.63;36.26;102262.75;6196045;28;20237;-57
2021/03/31 08:34:03;;;;;;;20.90;16.17;;;;;;;17.29;35.57;102251.44;6190572;28;20234;-59
2021/03/31 08:37:28;;;;;;;18.23;14.30;;;;;;;17.51;35.08;102241.47;6213093;28;20241;-56
2021/03/31 08:40:48;;;;;;;21.97;15.93;;;;;;;17.32;35.45;102245.25;6209104;28;20292;-53
2021/03/31 08:44:14;;;;;;;20.90;15.57;;;;;;;17.78;34.85;102236.66;6207995;28;20237;-58
2021/03/31 08:47:35;;;;;;;21.83;16.20;;;;;;;17.26;35.17;102240.09;6183165;28;20244;-53
2021/03/31 08:51:06;;;;;;;22.30;15.07;;;;;;;17.49;34.29;102227.44;6208225;28;20237;-58
2021/03/31 08:54:38;;;;;;;17.97;15.17;;;;;;;17.98;33.29;102230.19;6210644;28;20240;-55
2021/03/31 08:57:59;;;;;;;18.67;16.77;;;;;;;17.89;32.33;102216.28;6204891;28;20370;-57
2021/03/31 09:01:26;;;;;;;22.60;17.43;;;;;;;18.21;32.59;102222.75;6195201;28;20233;-58
2021/03/31 09:04:47;;;;;;;23.67;18.03;;;;;;;18.20;33.14;102222.75;6203488;28;20225;-58
2021/03/31 09:08:08;;;;;;;20.87;17.13;;;;;;;18.61;31.13;102216.69;6204643;28;20256;-58
2021/03/31 09:11:30;;;;;;;25.27;18.33;;;;;;;18.95;32.71;102210.72;6191261;28;20323;-59
2021/03/31 09:14:53;;;;;;;26.30;16.83;;;;;;;18.75;30.82;102213.75;6208623;28;20237;-56
2021/03/31 09:18:13;;;;;;;20.70;16.67;;;;;;;18.90;29.95;102212.56;6205508;28;21050;-59
2021/03/31 09:21:36;;;;;;;28.77;18.07;;;;;;;18.83;29.39;102214.50;6206953;28;20240;-57
2021/03/31 09:25:00;;;;;;;19.23;15.93;;;;;;;18.42;29.20;102210.91;6214400;28;20563;-59
2021/03/31 09:28:21;;;;;;;24.07;15.40;;;;;;;19.16;27.91;102203.22;6186056;28;20586;-57
2021/03/31 09:31:42;;;;;;;20.67;16.90;;;;;;;19.30;28.36;102201.13;6203493;28;20594;-58
2021/03/31 09:35:07;;;;;;;21.77;16.90;;;;;;;18.78;28.90;102202.25;6207344;28;20237;-56
2021/03/31 09:38:27;;;;;;;19.47;16.07;;;;;;;19.71;28.72;102191.31;6196968;28;20328;-55
2021/03/31 09:41:48;;;;;;;21.07;16.80;;;;;;;18.82;29.26;102198.69;6203384;28;20229;-57
2021/03/31 09:45:12;;;;;;;21.33;16.73;;;;;;;19.27;29.49;102191.50;6188755;28;20261;-56
2021/03/31 09:48:32;;;;;;;19.13;14.67;;;;;;;19.07;29.57;102183.16;6211439;28;20233;-53
2021/03/31 09:51:53;;;;;;;20.37;17.20;;;;;;;19.78;29.38;102179.72;6205871;28;20233;-54
2021/03/31 09:55:15;;;;;;;20.07;15.37;;;;;;;19.88;28.78;102174.19;6203753;28;20241;-57
2021/03/31 09:58:35;;;;;;;21.27;15.73;;;;;;;19.29;29.35;102173.00;6209956;28;20248;-59
2021/03/31 10:01:57;;;;;;;17.80;15.67;;;;;;;20.29;28.66;102172.19;6202824;28;20241;-55
2021/03/31 10:05:19;;;;;;;18.43;15.20;;;;;;;21.14;29.11;102170.53;6212393;28;20232;-58
2021/03/31 10:08:40;;;;;;;19.77;16.77;;;;;;;21.15;29.27;102161.66;6214552;28;20237;-58
2021/03/31 10:12:00;;;;;;;18.95;15.23;;;;;;;20.93;29.37;102150.91;6209205;28;20233;-57
2021/03/31 10:15:26;;;;;;;18.80;15.37;;;;;;;21.58;28.56;102149.69;6213272;28;20221;-59
2021/03/31 10:18:48;;;;;;;21.48;15.43;;;;;;;21.64;28.87;102141.53;6208228;28;20236;-58
2021/03/31 10:22:09;;;;;;;18.70;15.57;;;;;;;22.23;28.80;102148.25;6213213;28;20605;-57
2021/03/31 10:25:31;;;;;;;17.92;15.35;;;;;;;22.28;28.37;102141.03;6215292;28;20236;-58
2021/03/31 10:28:52;;;;;;;18.38;14.63;;;;;;;23.04;26.77;102132.84;6212648;28;20843;-58
2021/03/31 10:32:15;;;;;;;22.35;15.85;;;;;;;22.77;27.24;102130.31;6207192;28;20610;-58
2021/03/31 10:35:44;;;;;;;18.77;15.90;;;;;;;22.15;26.86;102127.31;6213026;28;20642;-60
2021/03/31 10:39:32;;;;;;;19.42;15.35;;;;;;;23.35;26.13;102117.31;6205292;28;20237;-60
2021/03/31 10:50:12;;;;;;;22.88;16.48;;;;;;;24.55;24.88;102112.03;6197327;28;20264;-58
2021/03/31 10:53:36;;;;;;;19.88;15.40;;;;;;;24.92;23.29;102099.56;6208578;28;20336;-58
2021/03/31 10:57:06;;;;;;;22.38;18.80;;;;;;;24.68;24.42;102100.78;6210635;28;21806;-56
2021/03/31 11:00:27;;;;;;;24.15;17.40;;;;;;;25.69;23.89;102093.03;6210996;28;20468;-56
2021/03/31 11:03:47;;;;;;;23.65;17.48;;;;;;;24.96;23.33;102086.97;6210852;28;20494;-61
2021/03/31 11:07:07;;;;;;;23.85;16.42;;;;;;;26.01;22.09;102087.81;6204489;28;20237;-59
2021/03/31 11:10:29;;;;;;;19.58;15.93;;;;;;;30.62;17.57;102073.59;6203711;28;20229;-59
2021/03/31 11:13:49;;;;;;;23.30;15.10;;;;;;;31.94;14.77;102075.19;6207654;28;20553;-59
2021/03/31 11:17:17;;;;;;;19.60;15.60;;;;;;;34.40;13.33;102072.31;6202989;28;20229;-57
2021/03/31 11:28:04;;;;;;;24.17;17.08;;;;;;;32.72;13.64;102063.41;6207238;28;20252;-60
2021/03/31 11:31:25;;;;;;;23.33;15.55;;;;;;;37.13;13.36;102052.25;6210522;28;20245;-70
2021/03/31 11:34:45;;;;;;;20.52;17.98;;;;;;;34.92;11.85;102053.97;6207907;28;20538;-71
2021/03/31 11:38:06;;;;;;;19.27;17.05;;;;;;;35.15;13.09;102048.22;6207611;28;20237;-59
2021/03/31 11:41:26;;;;;;;18.42;16.58;;;;;;;37.91;10.44;102043.16;6206594;28;20335;-60
2021/03/31 11:44:48;;;;;;;20.25;18.15;;;;;;;37.17;10.93;102031.94;6209531;28;20218;-58
2021/03/31 11:48:09;;;;;;;17.70;15.07;;;;;;;36.65;13.21;102028.13;6208324;28;20233;-68
2021/03/31 11:51:29;;;;;;;19.38;17.30;;;;;;;37.24;10.61;102027.53;6210190;28;20248;-66
2021/03/31 11:54:50;;;;;;;13.07;10.10;;;;;;;40.75;10.77;102023.75;6212510;28;20509;-70
2021/03/31 11:58:10;;;;;;;24.27;17.98;;;;;;;35.36;12.50;102016.41;6203907;28;20598;-70
2021/03/31 12:01:34;;;;;;;18.55;16.60;;;;;;;37.11;10.89;102016.22;6214184;28;20249;-69
2021/03/31 12:04:54;;;;;;;17.48;15.13;;;;;;;34.93;12.71;102011.53;6206611;28;20249;-69
2021/03/31 12:08:15;;;;;;;18.70;14.80;;;;;;;37.80;11.74;102004.38;6191171;28;20261;-68
2021/03/31 12:11:36;;;;;;;16.20;14.13;;;;;;;39.82;10.12;102000.16;6196478;28;20224;-72
2021/03/31 12:14:56;;;;;;;18.42;14.85;;;;;;;40.35;9.95;101993.06;6195307;28;20596;-65
2021/03/31 12:18:18;;;;;;;16.52;13.32;;;;;;;40.26;10.52;101988.66;6194630;28;20253;-64
2021/03/31 12:21:38;;;;;;;17.48;15.60;;;;;;;38.28;10.25;101992.97;6208087;28;20245;-62
2021/03/31 12:24:59;;;;;;;19.02;15.63;;;;;;;35.64;10.96;101987.50;6205625;28;20629;-64
2021/03/31 12:28:22;;;;;;;17.98;15.43;;;;;;;36.61;11.28;101982.44;6188892;28;20336;-64
2021/03/31 12:31:43;;;;;;;15.52;13.93;;;;;;;36.00;11.40;101986.75;6204329;28;20237;-63
2021/03/31 12:35:05;;;;;;;17.10;14.88;;;;;;;36.62;10.32;101979.56;6206763;28;20237;-64
2021/03/31 12:38:26;;;;;;;17.00;14.20;;;;;;;37.00;10.42;101988.34;6203785;28;20242;-63
2021/03/31 12:41:46;;;;;;;15.63;12.55;;;;;;;38.60;8.94;101978.53;6206990;28;20569;-64
2021/03/31 12:45:09;;;;;;;15.20;13.02;;;;;;;37.37;9.90;101973.63;6204598;28;20230;-63
2021/03/31 12:48:29;;;;;;;16.73;15.00;;;;;;;36.47;10.75;101973.00;6199800;28;20556;-63
2021/03/31 12:51:54;;;;;;;17.08;14.93;;;;;;;31.64;13.51;101968.97;6207766;28;20229;-61
2021/03/31 12:55:17;;;;;;;15.57;11.43;;;;;;;36.73;12.34;101962.22;6206010;28;20614;-63
2021/03/31 12:58:40;;;;;;;18.58;16.38;;;;;;;35.88;10.27;101959.84;6209551;28;20237;-63
2021/03/31 13:02:01;;;;;;;17.05;15.10;;;;;;;38.20;9.98;101959.31;6201574;28;20260;-62
2021/03/31 13:05:21;;;;;;;11.38;10.18;;;;;;;38.99;9.84;101951.47;6197942;28;20234;-63
2021/03/31 13:08:43;;;;;;;17.10;14.82;;;;;;;38.97;9.11;101947.19;6199061;28;20230;-62
2021/03/31 13:12:06;;;;;;;17.52;14.15;;;;;;;39.69;9.32;101944.38;6206653;28;20246;-62
2021/03/31 13:15:33;;;;;;;17.25;15.55;;;;;;;39.49;8.49;101937.66;6200684;28;20342;-63
2021/03/31 13:22:42;;;;;;;15.25;13.65;;;;;;;36.58;9.87;101923.91;6202044;28;20240;-64
2021/03/31 13:26:07;;;;;;;18.95;14.23;;;;;;;32.93;11.71;101927.72;6203089;28;20226;-63
2021/03/31 13:29:45;;;;;;;16.00;14.43;;;;;;;34.87;10.68;101916.41;6204369;28;20312;-62
2021/03/31 13:33:09;;;;;;;16.85;13.73;;;;;;;35.57;10.58;101913.25;6205772;28;20232;-63
2021/03/31 13:36:33;;;;;;;14.70;12.60;;;;;;;35.94;10.09;101916.91;6203656;28;20633;-62
2021/03/31 13:39:55;;;;;;;15.20;13.63;;;;;;;36.75;9.72;101905.06;6205625;28;20574;-62
2021/03/31 13:43:16;;;;;;;12.77;10.25;;;;;;;37.11;10.29;101902.19;6204233;28;20253;-60
2021/03/31 13:46:38;;;;;;;15.02;13.00;;;;;;;37.05;8.97;101899.13;6203834;28;20236;-63
2021/03/31 13:50:00;;;;;;;13.23;11.95;;;;;;;35.87;11.02;101895.00;6202642;28;20233;-64
2021/03/31 13:53:22;;;;;;;15.27;11.27;;;;;;;36.02;10.43;101898.00;6179109;28;20241;-62
2021/03/31 13:56:44;;;;;;;13.60;10.63;;;;;;;35.48;12.57;101890.66;6196066;28;20233;-62
2021/03/31 14:00:08;;;;;;;16.15;12.52;;;;;;;33.48;10.56;101885.06;6202501;28;20503;-61
2021/03/31 14:03:35;;;;;;;12.63;11.20;;;;;;;31.62;12.12;101890.16;6202809;28;20257;-62
2021/03/31 14:06:56;;;;;;;17.33;12.65;;;;;;;31.18;11.93;101873.91;6201136;28;20237;-63
2021/03/31 14:10:18;;;;;;;17.38;13.05;;;;;;;31.11;12.14;101861.06;6198193;28;20233;-61
2021/03/31 14:13:39;;;;;;;16.05;11.57;;;;;;;30.74;12.68;101859.44;6178403;28;20233;-63
2021/03/31 14:17:03;;;;;;;16.90;13.05;;;;;;;29.40;13.65;101860.53;6188785;28;20402;-59
2021/03/31 14:20:23;;;;;;;15.43;13.57;;;;;;;29.31;14.05;101855.84;6203089;28;20238;-58
2021/03/31 14:23:43;;;;;;;18.00;15.65;;;;;;;29.24;14.61;101856.28;6204878;28;20241;-59
2021/03/31 14:27:05;;;;;;;18.58;12.95;;;;;;;31.58;13.05;101842.91;6200758;28;20225;-60
2021/03/31 14:30:27;;;;;;;17.13;14.45;;;;;;;31.38;13.33;101841.84;6200872;28;20235;-60
2021/03/31 14:33:48;;;;;;;17.40;15.30;;;;;;;28.40;15.04;101838.91;6206538;28;20508;-58
2021/03/31 14:37:09;;;;;;;18.48;13.98;;;;;;;30.19;14.12;101836.81;6205057;28;20618;-59
2021/03/31 14:40:30;;;;;;;20.60;14.00;;;;;;;31.76;13.00;101835.19;6193363;28;20266;-59
2021/03/31 14:43:50;;;;;;;16.60;14.55;;;;;;;30.47;13.64;101840.09;6195082;28;20238;-59
2021/03/31 14:47:11;;;;;;;15.60;13.88;;;;;;;26.88;16.44;101846.03;6205455;28;20264;-59
2021/03/31 14:50:34;;;;;;;19.60;16.05;;;;;;;27.96;15.84;101842.75;6200120;28;20503;-59
2021/03/31 14:57:37;;;;;;;18.50;14.73;;;;;;;26.34;17.16;101841.25;6202734;28;20233;-59
2021/03/31 15:00:58;;;;;;;15.98;13.68;;;;;;;26.98;16.31;101840.97;6210965;28;20804;-58
2021/03/31 15:04:19;;;;;;;17.55;13.90;;;;;;;27.52;16.51;101833.09;6214365;28;20237;-59
2021/03/31 15:07:40;;;;;;;19.38;15.02;;;;;;;26.45;16.96;101827.25;6213675;28;20237;-59
2021/03/31 15:11:00;;;;;;;16.25;12.93;;;;;;;28.03;16.52;101828.00;6205971;28;20622;-60
2021/03/31 15:14:21;;;;;;;17.23;15.20;;;;;;;27.95;15.94;101827.63;6188365;28;20261;-59
2021/03/31 15:17:41;;;;;;;17.52;12.98;;;;;;;29.19;15.78;101818.19;6205773;28;20327;-60
2021/03/31 15:21:05;;;;;;;16.13;14.40;;;;;;;29.32;15.83;101828.06;6213485;28;20232;-58
2021/03/31 15:24:27;;;;;;;21.55;15.25;;;;;;;29.00;15.76;101820.47;6214048;28;20573;-59
2021/03/31 15:27:47;;;;;;;14.90;13.27;;;;;;;28.85;15.04;101812.56;6200212;28;20234;-59
2021/03/31 15:31:08;;;;;;;15.15;13.55;;;;;;;29.17;15.59;101806.72;6201201;28;20233;-59
2021/03/31 15:34:28;;;;;;;15.90;14.10;;;;;;;28.81;15.53;101811.06;6204321;28;20236;-59
2021/03/31 15:37:48;;;;;;;18.98;15.13;;;;;;;28.99;15.74;101808.03;6203133;28;20312;-58
2021/03/31 15:41:10;;;;;;;19.48;14.38;;;;;;;28.78;15.50;101803.22;6206868;28;20237;-59
2021/03/31 15:44:31;;;;;;;16.42;14.70;;;;;;;29.24;16.31;101791.91;6198134;28;20229;-60